createdAt,value
2022-10-25T00:02:19.976Z,62.62
2022-10-25T00:04:48.016Z,62.61
2022-10-25T00:07:15.625Z,62.82
2022-10-25T00:09:43.129Z,62.60
2022-10-25T00:12:10.894Z,62.84
2022-10-25T00:14:38.424Z,62.94
2022-10-25T00:17:05.866Z,62.76
2022-10-25T00:19:33.587Z,62.88
2022-10-25T00:22:01.027Z,62.97
2022-10-25T00:24:28.672Z,63.06
2022-10-25T00:26:56.509Z,63.15
2022-10-25T00:31:56.599Z,63.14
2022-10-25T00:34:24.048Z,63.25
2022-10-25T00:36:51.580Z,63.25
2022-10-25T00:39:19.309Z,63.36
2022-10-25T00:41:46.779Z,64.42
2022-10-25T00:44:36.214Z,63.83
2022-10-25T00:47:10.922Z,63.67
2022-10-25T00:49:38.363Z,63.45
2022-10-25T00:52:06.698Z,63.97
2022-10-25T00:54:37.537Z,64.26
2022-10-25T00:57:11.613Z,64.77
2022-10-25T00:59:39.625Z,64.85
2022-10-25T01:02:07.266Z,66.33
2022-10-25T01:04:35.075Z,65.71
2022-10-25T01:07:02.995Z,66.14
2022-10-25T01:09:32.203Z,65.45
2022-10-25T01:11:59.650Z,65.21
2022-10-25T01:14:28.195Z,66.12
2022-10-25T01:17:15.670Z,65.53
2022-10-25T01:20:09.753Z,66.03
2022-10-25T01:22:46.106Z,65.84
2022-10-25T01:25:30.600Z,66.87
2022-10-25T01:28:04.637Z,66.18
2022-10-25T01:31:10.142Z,65.86
2022-10-25T01:33:40.869Z,65.52
2022-10-25T01:36:18.319Z,65.94
2022-10-25T01:39:01.123Z,66.83
2022-10-25T01:41:51.548Z,66.18
2022-10-25T01:44:38.740Z,67.51
2022-10-25T01:47:15.094Z,68.03
2022-10-25T01:49:47.362Z,68.46
2022-10-25T01:52:18.601Z,67.80
2022-10-25T01:54:45.984Z,67.83
2022-10-25T01:57:22.232Z,70.06
2022-10-25T02:00:01.837Z,70.04
2022-10-25T02:02:33.448Z,69.38
2022-10-25T02:05:14.686Z,67.49
2022-10-25T02:07:43.956Z,67.14
2022-10-25T02:10:36.818Z,67.38
2022-10-25T02:13:09.884Z,66.86
2022-10-25T02:15:40.871Z,67.52
2022-10-25T02:18:14.306Z,66.71
2022-10-25T02:20:46.599Z,66.07
2022-10-25T02:23:15.607Z,66.44
2022-10-25T02:25:43.462Z,67.41
2022-10-25T02:28:12.988Z,68.63
2022-10-25T02:30:43.198Z,68.11
2022-10-25T02:33:12.001Z,68.93
2022-10-25T02:35:39.669Z,69.83
2022-10-25T02:38:07.518Z,68.35
2022-10-25T02:40:35.100Z,68.44
2022-10-25T02:43:02.551Z,68.54
2022-10-25T02:45:30.228Z,68.91
2022-10-25T02:47:57.647Z,68.24
2022-10-25T02:50:25.084Z,70.12
2022-10-25T02:52:52.766Z,70.32
2022-10-25T02:55:20.165Z,73.14
2022-10-25T02:57:47.575Z,73.09
2022-10-25T03:00:15.643Z,72.59
2022-10-25T03:02:43.073Z,75.63
2022-10-25T03:05:10.509Z,75.24
2022-10-25T03:07:38.282Z,73.89
2022-10-25T03:10:06.286Z,74.99
2022-10-25T03:12:33.684Z,72.03
2022-10-25T03:15:01.421Z,71.95
2022-10-25T03:17:28.851Z,71.37
2022-10-25T03:19:56.269Z,70.76
2022-10-25T03:22:23.989Z,71.46
2022-10-25T03:24:51.387Z,70.90
2022-10-25T03:27:18.917Z,73.10
2022-10-25T03:29:46.590Z,72.63
2022-10-25T03:32:14.009Z,71.73
2022-10-25T03:34:41.441Z,71.56
2022-10-25T03:37:09.131Z,74.16
2022-10-25T03:39:36.537Z,73.87
2022-10-25T03:42:04.082Z,72.72
2022-10-25T03:44:31.863Z,74.38
2022-10-25T03:46:59.303Z,73.09
2022-10-25T03:49:26.847Z,72.66
2022-10-25T03:51:57.824Z,70.39
2022-10-25T03:54:29.236Z,70.39
2022-10-25T03:56:57.428Z,71.95
2022-10-25T03:59:24.886Z,72.58
2022-10-25T04:01:52.345Z,71.31
2022-10-25T04:04:20.374Z,71.53
2022-10-25T04:06:47.765Z,72.44
2022-10-25T04:09:15.386Z,72.57
2022-10-25T04:11:45.529Z,71.40
2022-10-25T04:14:13.668Z,72.07
2022-10-25T04:16:41.098Z,72.94
2022-10-25T04:19:08.760Z,71.95
2022-10-25T04:21:36.166Z,72.76
2022-10-25T04:24:04.576Z,70.76
2022-10-25T04:26:34.991Z,69.85
2022-10-25T04:29:03.155Z,70.86
2022-10-25T04:31:30.941Z,70.26
2022-10-25T04:33:58.819Z,69.70
2022-10-25T04:36:28.726Z,69.46
2022-10-25T04:38:56.618Z,68.41
2022-10-25T04:41:24.345Z,67.84
2022-10-25T04:43:52.305Z,68.25
2022-10-25T04:46:20.448Z,68.59
2022-10-25T04:48:48.195Z,68.56
2022-10-25T04:51:15.987Z,69.07
2022-10-25T04:53:43.469Z,69.00
2022-10-25T04:56:13.133Z,68.33
2022-10-25T04:58:40.859Z,67.33
2022-10-25T05:01:11.625Z,68.55
2022-10-25T05:03:39.625Z,68.61
2022-10-25T05:06:07.001Z,70.04
2022-10-25T05:08:34.811Z,69.56
2022-10-25T05:11:02.488Z,69.15
2022-10-25T05:13:33.012Z,69.26
2022-10-25T05:16:01.115Z,69.18
2022-10-25T05:18:29.202Z,68.64
2022-10-25T05:21:04.113Z,68.96
2022-10-25T05:23:32.147Z,68.80
2022-10-25T05:26:03.893Z,67.58
2022-10-25T05:28:31.873Z,66.73
2022-10-25T05:31:06.551Z,66.92
2022-10-25T05:33:34.291Z,66.99
2022-10-25T05:36:03.449Z,67.61
2022-10-25T05:38:34.195Z,68.33
2022-10-25T05:41:05.044Z,67.76
2022-10-25T05:43:32.608Z,67.56
2022-10-25T05:46:10.978Z,68.03
2022-10-25T05:48:38.927Z,67.21
2022-10-25T05:51:40.358Z,67.54
2022-10-25T05:54:11.419Z,66.72
2022-10-25T05:56:39.447Z,68.84
2022-10-25T05:59:12.326Z,67.93
2022-10-25T06:01:41.641Z,66.36
2022-10-25T06:04:09.905Z,66.57
2022-10-25T06:06:39.013Z,66.49
2022-10-25T06:09:07.322Z,67.82
2022-10-25T06:11:35.405Z,66.94
2022-10-25T06:14:03.029Z,66.64
2022-10-25T06:16:30.453Z,67.14
2022-10-25T06:18:58.238Z,66.16
2022-10-25T06:21:28.521Z,66.69
2022-10-25T06:23:56.693Z,65.41
2022-10-25T06:26:27.092Z,65.82
2022-10-25T06:28:56.788Z,66.23
2022-10-25T06:31:24.831Z,65.25
2022-10-25T06:33:52.819Z,65.34
2022-10-25T06:36:22.444Z,65.20
2022-10-25T06:38:50.660Z,65.05
2022-10-25T06:41:21.712Z,65.24
2022-10-25T06:43:49.350Z,65.37
2022-10-25T06:46:23.174Z,64.25
2022-10-25T06:48:51.707Z,63.79
2022-10-25T06:51:19.915Z,64.04
2022-10-25T06:53:47.580Z,64.29
2022-10-25T06:56:15.266Z,63.65
2022-10-25T06:58:43.113Z,63.78
2022-10-25T07:01:13.003Z,63.70
2022-10-25T07:03:41.264Z,63.59
2022-10-25T07:06:11.419Z,63.08
2022-10-25T07:08:40.900Z,62.87
2022-10-25T07:11:14.513Z,62.59
2022-10-25T07:13:42.000Z,62.94
2022-10-25T07:16:12.162Z,63.07
2022-10-25T07:18:39.624Z,62.63
2022-10-25T07:21:10.707Z,62.90
2022-10-25T07:23:42.399Z,62.70
2022-10-25T07:26:15.329Z,63.18
2022-10-25T07:28:44.630Z,63.54
2022-10-25T07:31:13.817Z,63.51
2022-10-25T07:33:41.295Z,63.87
2022-10-25T07:36:11.498Z,63.17
2022-10-25T07:38:39.412Z,64.17
2022-10-25T07:41:07.327Z,64.21
2022-10-25T07:43:35.374Z,63.02
2022-10-25T07:46:03.234Z,62.81
2022-10-25T07:48:30.956Z,63.45
2022-10-25T07:51:02.996Z,63.72
2022-10-25T07:53:30.471Z,65.49
2022-10-25T07:55:58.020Z,65.25
2022-10-25T07:58:25.729Z,64.69
2022-10-25T08:00:53.200Z,64.40
2022-10-25T08:03:20.933Z,63.44
2022-10-25T08:05:48.601Z,63.24
2022-10-25T08:08:16.134Z,63.38
2022-10-25T08:10:44.306Z,63.16
2022-10-25T08:13:12.120Z,61.89
2022-10-25T08:15:41.015Z,61.84
2022-10-25T08:18:09.691Z,63.51
2022-10-25T08:21:00.610Z,62.15
2022-10-25T08:23:25.417Z,62.19
2022-10-25T08:25:52.831Z,62.40
2022-10-25T08:28:20.590Z,62.17
2022-10-25T08:30:48.320Z,62.00
2022-10-25T08:33:15.736Z,62.49
2022-10-25T08:35:43.175Z,62.19
2022-10-25T08:38:10.937Z,62.24
2022-10-25T08:41:06.790Z,62.44
2022-10-25T08:43:53.325Z,62.85
2022-10-25T08:46:26.114Z,62.47
2022-10-25T08:49:07.262Z,63.45
2022-10-25T08:51:38.713Z,63.62
2022-10-25T08:54:25.184Z,62.40
2022-10-25T08:57:16.584Z,62.39
2022-10-25T08:59:48.625Z,63.76
2022-10-25T09:02:24.064Z,63.44
2022-10-25T09:04:51.843Z,63.17
2022-10-25T09:07:23.213Z,63.24
2022-10-25T09:10:14.557Z,62.80
2022-10-25T09:12:52.405Z,62.78
2022-10-25T09:15:51.355Z,62.08
2022-10-25T09:18:19.464Z,62.37
2022-10-25T09:20:51.609Z,62.29
2022-10-25T09:23:29.361Z,61.88
2022-10-25T09:26:27.505Z,62.20
2022-10-25T09:29:04.929Z,62.18
2022-10-25T09:31:37.854Z,62.20
2022-10-25T09:34:08.164Z,61.85
2022-10-25T09:36:41.126Z,64.09
2022-10-25T09:39:19.782Z,64.42
2022-10-25T09:41:50.477Z,62.70
2022-10-25T09:44:41.027Z,61.71
2022-10-25T09:47:17.744Z,61.45
2022-10-25T09:50:18.024Z,61.92
2022-10-25T09:52:45.467Z,60.95
2022-10-25T09:55:29.890Z,60.99
2022-10-25T09:57:57.730Z,61.65
2022-10-25T10:00:25.516Z,62.18
2022-10-25T10:02:53.385Z,63.42
2022-10-25T10:05:22.113Z,62.42
2022-10-25T10:07:50.872Z,63.23
2022-10-25T10:10:22.907Z,63.15
2022-10-25T10:12:55.612Z,64.40
2022-10-25T10:15:28.125Z,67.35
2022-10-25T10:18:25.710Z,65.12
2022-10-25T10:21:11.561Z,64.52
2022-10-25T10:23:47.343Z,62.35
2022-10-25T10:26:18.501Z,61.67
2022-10-25T10:28:50.848Z,62.26
2022-10-25T10:31:19.061Z,63.06
2022-10-25T10:33:50.553Z,61.84
2022-10-25T10:36:23.554Z,61.51
2022-10-25T10:38:51.395Z,62.19
2022-10-25T10:41:29.297Z,60.98
2022-10-25T10:44:13.097Z,62.00
2022-10-25T10:46:47.713Z,61.58
2022-10-25T10:49:15.852Z,63.29
2022-10-25T10:51:45.528Z,61.95
2022-10-25T10:54:27.255Z,61.24
2022-10-25T10:56:59.816Z,61.24
2022-10-25T10:59:34.438Z,61.98
2022-10-25T11:02:20.722Z,62.66
2022-10-25T11:04:52.910Z,62.19
2022-10-25T11:07:34.086Z,61.06
2022-10-25T11:10:16.677Z,62.14
2022-10-25T11:12:44.598Z,63.00
2022-10-25T11:15:13.180Z,62.87
2022-10-25T11:17:53.833Z,63.92
2022-10-25T11:20:31.094Z,62.61
2022-10-25T11:23:13.533Z,60.96
2022-10-25T11:25:52.860Z,61.67
2022-10-25T11:28:39.102Z,60.75
2022-10-25T11:31:15.006Z,60.78
2022-10-25T11:33:42.395Z,59.39
2022-10-25T11:36:18.799Z,59.60
2022-10-25T11:39:17.227Z,59.58
2022-10-25T11:41:49.655Z,58.19
2022-10-25T11:44:41.693Z,56.81
2022-10-25T11:47:43.064Z,56.87
2022-10-25T11:50:15.339Z,56.48
2022-10-25T11:52:59.158Z,55.66
2022-10-25T11:55:40.202Z,54.79
2022-10-25T11:58:38.558Z,53.62
2022-10-25T12:01:22.339Z,53.52
2022-10-25T12:04:25.553Z,53.02
2022-10-25T12:07:27.541Z,51.21
2022-10-25T12:10:09.376Z,51.46
2022-10-25T12:12:45.640Z,52.56
2022-10-25T12:15:19.416Z,51.72
2022-10-25T12:17:47.112Z,50.86
2022-10-25T12:20:22.278Z,50.92
2022-10-25T12:22:52.283Z,49.80
2022-10-25T12:25:34.338Z,49.96
2022-10-25T12:28:24.150Z,49.22
2022-10-25T12:30:57.228Z,50.58
2022-10-25T12:33:35.337Z,50.64
2022-10-25T12:36:26.730Z,50.60
2022-10-25T12:38:55.290Z,49.84
2022-10-25T12:41:28.358Z,50.49
2022-10-25T12:44:03.898Z,49.78
2022-10-25T12:46:43.668Z,51.46
2022-10-25T12:49:26.262Z,50.84
2022-10-25T12:52:22.101Z,50.82
2022-10-25T12:55:08.902Z,49.86
2022-10-25T12:58:05.816Z,49.92
2022-10-25T13:01:02.314Z,50.25
2022-10-25T13:03:39.242Z,50.41
2022-10-25T13:06:22.023Z,49.37
2022-10-25T13:08:50.194Z,50.56
2022-10-25T13:11:17.688Z,50.78
2022-10-25T13:13:50.873Z,50.11
2022-10-25T13:16:27.789Z,50.37
2022-10-25T13:19:53.157Z,49.96
2022-10-25T13:22:40.960Z,50.70
2022-10-25T13:25:08.369Z,49.17
2022-10-25T13:27:36.785Z,48.41
2022-10-25T13:30:07.414Z,49.04
2022-10-25T13:32:36.395Z,48.92
2022-10-25T13:35:39.578Z,47.96
2022-10-25T13:38:14.813Z,49.88
2022-10-25T13:40:42.509Z,49.03
2022-10-25T13:43:20.612Z,49.61
2022-10-25T13:45:54.252Z,49.22
2022-10-25T13:48:35.219Z,47.67
2022-10-25T13:51:12.692Z,45.81
2022-10-25T13:53:43.581Z,47.10
2022-10-25T13:56:16.339Z,47.32
2022-10-25T13:58:52.904Z,47.12
2022-10-25T14:01:25.022Z,46.02
2022-10-25T14:04:03.444Z,45.40
2022-10-25T14:06:35.797Z,45.49
2022-10-25T14:09:11.680Z,46.20
2022-10-25T14:12:11.983Z,46.10
2022-10-25T14:15:03.975Z,45.56
2022-10-25T14:17:37.887Z,45.03
2022-10-25T14:20:10.027Z,45.91
2022-10-25T14:22:41.442Z,45.16
2022-10-25T14:25:18.230Z,44.90
2022-10-25T14:27:45.639Z,43.81
2022-10-25T14:30:20.516Z,43.96
2022-10-25T14:33:01.176Z,44.72
2022-10-25T14:35:35.099Z,44.09
2022-10-25T14:38:04.318Z,44.00
2022-10-25T14:40:32.100Z,44.46
2022-10-25T14:43:23.183Z,44.23
2022-10-25T14:46:01.437Z,44.82
2022-10-25T14:48:29.572Z,45.33
2022-10-25T14:50:59.611Z,44.65
2022-10-25T14:53:28.568Z,45.40
2022-10-25T14:56:01.705Z,44.73
2022-10-25T14:58:42.479Z,44.60
2022-10-25T15:01:12.430Z,45.68
2022-10-25T15:03:42.647Z,45.68
2022-10-25T15:06:12.805Z,45.02
2022-10-25T15:08:41.373Z,44.68
2022-10-25T15:11:14.584Z,44.90
2022-10-25T15:13:44.289Z,45.15
2022-10-25T15:16:44.172Z,45.43
2022-10-25T15:19:18.353Z,46.19
2022-10-25T15:21:51.934Z,45.41
2022-10-25T15:24:22.402Z,45.72
2022-10-25T15:26:52.824Z,45.95
2022-10-25T15:32:24.449Z,45.88
2022-10-25T15:34:54.235Z,45.69
2022-10-25T15:37:22.962Z,45.81
2022-10-25T15:39:52.807Z,46.53
2022-10-25T15:42:22.032Z,46.38
2022-10-25T15:44:49.645Z,46.68
2022-10-25T15:47:32.965Z,46.54
2022-10-25T15:50:02.765Z,46.53
2022-10-25T15:52:30.274Z,46.84
2022-10-25T15:54:57.705Z,47.39
2022-10-25T15:57:27.334Z,47.16
2022-10-25T15:59:54.845Z,47.69
2022-10-25T16:02:26.328Z,47.38
2022-10-25T16:04:54.478Z,47.47
2022-10-25T16:07:22.369Z,47.59
2022-10-25T16:09:49.845Z,47.64
2022-10-25T16:12:20.934Z,48.05
2022-10-25T16:14:49.652Z,48.05
2022-10-25T16:17:17.413Z,48.43
2022-10-25T16:19:44.884Z,48.37
2022-10-25T16:22:12.389Z,48.61
2022-10-25T16:24:40.228Z,48.86
2022-10-25T16:27:07.796Z,49.11
2022-10-25T16:29:35.286Z,49.34
2022-10-25T16:32:04.082Z,49.70
2022-10-25T16:34:31.747Z,49.54
2022-10-25T16:36:59.447Z,49.38
2022-10-25T16:39:27.265Z,49.67
2022-10-25T16:41:56.679Z,49.72
2022-10-25T16:44:24.275Z,49.72
2022-10-25T16:46:52.104Z,49.68
2022-10-25T16:49:20.386Z,49.90
2022-10-25T16:51:50.191Z,50.03
2022-10-25T16:54:23.884Z,50.20
2022-10-25T16:56:52.195Z,50.25
2022-10-25T16:59:19.891Z,50.17
2022-10-25T17:01:54.271Z,50.20
2022-10-25T17:04:26.385Z,50.36
2022-10-25T17:06:54.005Z,50.74
2022-10-25T17:09:22.163Z,50.72
2022-10-25T17:11:49.728Z,51.05
2022-10-25T17:14:17.205Z,51.40
2022-10-25T17:16:45.301Z,51.51
2022-10-25T17:19:12.966Z,51.39
2022-10-25T17:21:40.478Z,51.73
2022-10-25T17:24:09.696Z,52.59
2022-10-25T17:26:38.341Z,52.26
2022-10-25T17:29:05.896Z,52.25
2022-10-25T17:31:33.645Z,52.71
2022-10-25T17:34:01.642Z,52.85
2022-10-25T17:36:31.699Z,53.04
2022-10-25T17:39:00.355Z,53.23
2022-10-25T17:41:28.218Z,53.17
2022-10-25T17:43:56.871Z,52.95
2022-10-25T17:46:29.270Z,53.48
2022-10-25T17:49:03.172Z,53.52
2022-10-25T17:51:32.364Z,53.54
2022-10-25T17:53:59.990Z,53.57
2022-10-25T17:56:28.050Z,53.68
2022-10-25T17:58:57.212Z,54.14
2022-10-25T18:01:27.758Z,54.63
2022-10-25T18:03:55.763Z,54.55
2022-10-25T18:06:25.248Z,54.85
2022-10-25T18:08:57.931Z,54.95
2022-10-25T18:11:27.217Z,54.96
2022-10-25T18:13:58.159Z,55.18
2022-10-25T18:16:27.788Z,54.86
2022-10-25T18:18:57.539Z,54.80
2022-10-25T18:21:26.693Z,54.56
2022-10-25T18:23:55.828Z,56.10
2022-10-25T18:26:24.496Z,55.83
2022-10-25T18:28:52.698Z,55.34
2022-10-25T18:31:21.115Z,55.76
2022-10-25T18:33:48.914Z,55.38
2022-10-25T18:36:19.393Z,55.60
2022-10-25T18:38:48.469Z,55.39
2022-10-25T18:41:22.036Z,55.29
2022-10-25T18:43:50.515Z,56.21
2022-10-25T18:46:19.032Z,55.79
2022-10-25T18:48:52.731Z,55.74
2022-10-25T18:51:23.415Z,55.75
2022-10-25T18:53:59.785Z,55.51
2022-10-25T18:56:29.641Z,55.28
2022-10-25T18:58:58.992Z,55.59
2022-10-25T19:01:32.738Z,55.83
2022-10-25T19:04:03.586Z,55.66
2022-10-25T19:06:32.073Z,55.58
2022-10-25T19:09:00.207Z,55.28
2022-10-25T19:11:28.121Z,55.33
2022-10-25T19:13:56.510Z,55.57
2022-10-25T19:16:24.144Z,55.54
2022-10-25T19:18:52.145Z,55.38
2022-10-25T19:21:21.159Z,55.95
2022-10-25T19:23:48.844Z,57.54
2022-10-25T19:26:19.078Z,57.34
2022-10-25T19:28:47.608Z,56.87
2022-10-25T19:31:17.369Z,57.17
2022-10-25T19:33:49.325Z,57.28
2022-10-25T19:36:17.912Z,56.75
2022-10-25T19:38:48.317Z,56.28
2022-10-25T19:41:17.804Z,56.42
2022-10-25T19:43:46.209Z,56.44
2022-10-25T19:46:14.514Z,56.83
2022-10-25T19:48:42.317Z,58.07
2022-10-25T19:51:18.352Z,57.57
2022-10-25T19:53:46.493Z,57.54
2022-10-25T19:56:17.509Z,57.62
2022-10-25T19:58:45.348Z,57.11
2022-10-25T20:01:15.662Z,57.21
2022-10-25T20:03:44.945Z,57.31
2022-10-25T20:06:21.597Z,57.01
2022-10-25T20:08:53.216Z,57.57
2022-10-25T20:11:22.246Z,57.46
2022-10-25T20:13:54.422Z,57.67
2022-10-25T20:16:22.839Z,57.63
2022-10-25T20:18:50.549Z,57.71
2022-10-25T20:21:23.707Z,57.71
2022-10-25T20:24:03.534Z,57.61
2022-10-25T20:26:36.157Z,57.51
2022-10-25T20:29:17.062Z,57.31
2022-10-25T20:31:47.857Z,57.92
2022-10-25T20:34:16.436Z,57.20
2022-10-25T20:36:44.274Z,57.18
2022-10-25T20:39:12.617Z,56.65
2022-10-25T20:41:40.454Z,56.12
2022-10-25T20:44:09.270Z,56.13
2022-10-25T20:46:36.915Z,55.78
2022-10-25T20:49:07.377Z,55.89
2022-10-25T20:51:35.198Z,56.50
2022-10-25T20:54:09.332Z,56.42
2022-10-25T20:56:39.234Z,56.22
2022-10-25T20:59:06.762Z,56.06
2022-10-25T21:01:34.438Z,56.90
2022-10-25T21:04:02.809Z,58.04
2022-10-25T21:06:30.253Z,57.73
2022-10-25T21:08:57.693Z,56.84
2022-10-25T21:11:25.440Z,56.21
2022-10-25T21:13:52.914Z,55.96
2022-10-25T21:16:20.352Z,55.83
2022-10-25T21:18:48.061Z,57.08
2022-10-25T21:21:19.836Z,56.69
2022-10-25T21:23:47.792Z,56.45
2022-10-25T21:26:15.840Z,56.23
2022-10-25T21:28:43.338Z,56.42
2022-10-25T21:31:13.085Z,57.05
2022-10-25T21:33:49.725Z,57.43
2022-10-25T21:36:19.786Z,57.76
2022-10-25T21:38:47.580Z,57.81
2022-10-25T21:41:17.078Z,57.82
2022-10-25T21:43:46.595Z,57.11
2022-10-25T21:46:15.800Z,57.05
2022-10-25T21:48:44.012Z,56.71
2022-10-25T21:51:11.444Z,56.77
2022-10-25T21:53:39.267Z,56.55
2022-10-25T21:56:08.441Z,56.74
2022-10-25T21:58:36.094Z,57.11
2022-10-25T22:01:07.475Z,57.06
2022-10-25T22:03:35.282Z,56.53
2022-10-25T22:06:05.802Z,56.62
2022-10-25T22:08:33.205Z,56.45
2022-10-25T22:11:02.970Z,56.30
2022-10-25T22:13:30.409Z,56.02
2022-10-25T22:16:06.232Z,55.94
2022-10-25T22:18:33.958Z,55.91
2022-10-25T22:21:04.012Z,56.01
2022-10-25T22:23:31.887Z,56.24
2022-10-25T22:26:02.797Z,56.20
2022-10-25T22:28:30.451Z,56.22
2022-10-25T22:31:03.403Z,56.28
2022-10-25T22:33:31.115Z,56.07
2022-10-25T22:36:09.399Z,56.05
2022-10-25T22:38:37.539Z,55.79
2022-10-25T22:41:07.233Z,56.19
2022-10-25T22:43:35.706Z,57.96
2022-10-25T22:46:05.225Z,57.00
2022-10-25T22:48:34.497Z,56.45
2022-10-25T22:51:02.301Z,56.11
2022-10-25T22:53:30.833Z,55.99
2022-10-25T22:56:00.846Z,55.53
2022-10-25T22:58:29.335Z,55.90
2022-10-25T23:01:09.346Z,56.58
2022-10-25T23:03:39.135Z,57.44
2022-10-25T23:06:09.356Z,58.01
2022-10-25T23:08:36.877Z,58.35
2022-10-25T23:11:10.725Z,58.58
2022-10-25T23:13:39.240Z,58.42
2022-10-25T23:16:06.889Z,57.53
2022-10-25T23:18:34.780Z,57.17
2022-10-25T23:21:03.183Z,56.85
2022-10-25T23:23:34.306Z,56.50
2022-10-25T23:26:02.317Z,55.73
2022-10-25T23:28:33.769Z,56.15
2022-10-25T23:31:05.546Z,56.26
2022-10-25T23:33:33.841Z,56.25
2022-10-25T23:36:06.645Z,56.96
2022-10-25T23:38:34.821Z,56.54
2022-10-25T23:41:02.271Z,56.93
2022-10-25T23:43:30.012Z,56.88
2022-10-25T23:45:57.997Z,57.15
2022-10-25T23:48:25.414Z,57.31
2022-10-25T23:53:34.720Z,58.01
2022-10-25T23:56:02.923Z,58.23
2022-10-25T23:58:30.432Z,57.60
